createdAt,value
2019-03-03T00:00:49.301Z,97758.75
2019-03-03T00:03:21.362Z,97752.23
2019-03-03T00:05:53.407Z,97754.73
2019-03-03T00:08:25.339Z,97748.92
2019-03-03T00:10:57.292Z,97753.45
2019-03-03T00:13:29.218Z,97756.50
2019-03-03T00:16:01.152Z,97759.50
2019-03-03T00:18:33.042Z,97762.55
2019-03-03T00:21:04.975Z,97763.50
2019-03-03T00:23:36.907Z,97765.11
2019-03-03T00:26:08.963Z,97767.08
2019-03-03T00:28:40.939Z,97766.45
2019-03-03T00:31:17.205Z,97765.81
2019-03-03T00:33:49.150Z,97769.39
2019-03-03T00:36:21.457Z,97769.02
2019-03-03T00:39:07.307Z,97773.78
2019-03-03T00:41:58.082Z,97771.48
2019-03-03T00:44:49.010Z,97768.59
2019-03-03T00:47:45.813Z,97774.69
2019-03-03T00:50:26.088Z,97779.71
2019-03-03T00:53:16.861Z,97779.75
2019-03-03T00:56:10.371Z,97775.17
2019-03-03T00:58:59.743Z,97775.64
2019-03-03T01:02:08.426Z,97770.41
2019-03-03T01:04:59.183Z,97769.35
2019-03-03T01:07:42.901Z,97767.53
2019-03-03T01:10:22.103Z,97766.29
2019-03-03T01:13:18.675Z,97768.27
2019-03-03T01:16:05.031Z,97774.05
2019-03-03T01:18:58.857Z,97777.94
2019-03-03T01:21:48.275Z,97776.88
2019-03-03T01:24:47.811Z,97771.73
2019-03-03T01:27:19.784Z,97774.83
2019-03-03T01:29:51.892Z,97772.71
2019-03-03T01:32:23.924Z,97776.34
2019-03-03T01:34:55.823Z,97766.75
2019-03-03T01:37:27.761Z,97768.97
2019-03-03T01:40:01.448Z,97766.75
2019-03-03T01:42:33.373Z,97768.55
2019-03-03T01:45:06.268Z,97771.81
2019-03-03T01:47:38.209Z,97772.08
2019-03-03T01:50:11.267Z,97770.06
2019-03-03T01:52:43.412Z,97775.87
2019-03-03T01:55:15.660Z,97767.70
2019-03-03T01:57:47.596Z,97772.72
2019-03-03T02:00:26.414Z,97769.41
2019-03-03T02:02:59.011Z,97769.26
2019-03-03T02:05:30.904Z,97764.29
2019-03-03T02:08:03.419Z,97771.06
2019-03-03T02:10:35.463Z,97763.42
2019-03-03T02:13:07.398Z,97761.66
2019-03-03T02:15:39.320Z,97765.51
2019-03-03T02:18:11.877Z,97760.47
2019-03-03T02:20:43.800Z,97759.03
2019-03-03T02:23:15.732Z,97757.32
2019-03-03T02:25:47.873Z,97759.13
2019-03-03T02:28:19.854Z,97761.97
2019-03-03T02:30:51.881Z,97762.02
2019-03-03T02:33:23.799Z,97759.09
2019-03-03T02:35:55.834Z,97756.89
2019-03-03T02:38:27.773Z,97756.89
2019-03-03T02:40:59.699Z,97750.64
2019-03-03T02:43:38.932Z,97745.07
2019-03-03T02:46:11.052Z,97745.09
2019-03-03T02:48:43.082Z,97747.01
2019-03-03T02:51:15.013Z,97743.84
2019-03-03T02:53:47.101Z,97744.06
2019-03-03T02:56:19.024Z,97740.20
2019-03-03T02:58:50.970Z,97733.80
2019-03-03T03:01:29.517Z,97726.03
2019-03-03T03:04:01.439Z,97740.04
2019-03-03T03:06:47.337Z,97744.95
2019-03-03T03:09:22.510Z,97750.39
2019-03-03T03:12:19.154Z,97743.29
2019-03-03T03:15:12.773Z,97738.72
2019-03-03T03:18:09.588Z,97740.48
2019-03-03T03:21:03.121Z,97741.69
2019-03-03T03:23:43.929Z,97735.44
2019-03-03T03:26:46.680Z,97736.63
2019-03-03T03:29:43.470Z,97731.28
2019-03-03T03:32:20.740Z,97732.47
2019-03-03T03:35:29.600Z,97722.37
2019-03-03T03:38:19.439Z,97717.88
2019-03-03T03:41:05.656Z,97720.38
2019-03-03T03:43:53.814Z,97724.89
2019-03-03T03:46:47.560Z,97717.78
2019-03-03T03:49:35.561Z,97716.49
2019-03-03T03:52:25.010Z,97719.75
2019-03-03T03:55:21.871Z,97710.77
2019-03-03T03:58:12.702Z,97715.47
2019-03-03T04:00:51.511Z,97709.38
2019-03-03T04:03:52.413Z,97706.08
2019-03-03T04:06:48.734Z,97700.09
2019-03-03T04:09:27.695Z,97699.61
2019-03-03T04:12:21.225Z,97697.00
2019-03-03T04:15:18.906Z,97707.16
2019-03-03T04:17:56.404Z,97699.63
2019-03-03T04:21:02.293Z,97701.48
2019-03-03T04:24:02.023Z,97695.89
2019-03-03T04:26:50.395Z,97698.77
2019-03-03T04:29:41.178Z,97694.61
2019-03-03T04:32:34.695Z,97693.38
2019-03-03T04:35:15.338Z,97691.61
2019-03-03T04:38:03.029Z,97691.24
2019-03-03T04:40:53.802Z,97691.24
2019-03-03T04:43:30.618Z,97692.83
2019-03-03T04:46:16.669Z,97694.80
2019-03-03T04:49:13.322Z,97689.83
2019-03-03T04:52:10.129Z,97691.11
2019-03-03T04:55:06.756Z,97698.39
2019-03-03T04:58:00.297Z,97691.24
2019-03-03T05:00:49.554Z,97684.09
2019-03-03T05:03:52.197Z,97687.41
2019-03-03T05:06:41.530Z,97687.52
2019-03-03T05:09:38.130Z,97687.99
2019-03-03T05:12:42.746Z,97687.95
2019-03-03T05:15:34.013Z,97686.77
2019-03-03T05:18:11.910Z,97685.80
2019-03-03T05:20:48.651Z,97682.70
2019-03-03T05:23:20.582Z,97685.05
2019-03-03T05:25:52.618Z,97681.31
2019-03-03T05:28:24.539Z,97685.01
2019-03-03T05:30:56.579Z,97682.86
2019-03-03T05:33:28.509Z,97677.05
2019-03-03T05:36:00.472Z,97672.58
2019-03-03T05:38:32.448Z,97675.09
2019-03-03T05:41:04.438Z,97668.27
2019-03-03T05:43:36.353Z,97662.67
2019-03-03T05:46:08.289Z,97663.48
2019-03-03T05:48:40.220Z,97665.67
2019-03-03T05:51:12.148Z,97669.91
2019-03-03T05:53:44.079Z,97665.74
2019-03-03T05:56:16.379Z,97667.87
2019-03-03T05:58:48.330Z,97665.41
2019-03-03T06:01:20.268Z,97666.27
2019-03-03T06:03:52.190Z,97674.59
2019-03-03T06:06:24.116Z,97666.41
2019-03-03T06:08:56.049Z,97665.43
2019-03-03T06:11:27.975Z,97666.02
2019-03-03T06:13:59.897Z,97664.52
2019-03-03T06:16:31.876Z,97666.13
2019-03-03T06:19:03.818Z,97659.77
2019-03-03T06:21:35.765Z,97652.80
2019-03-03T06:24:07.794Z,97655.47
2019-03-03T06:26:39.736Z,97655.24
2019-03-03T06:29:11.683Z,97654.26
2019-03-03T06:31:43.619Z,97653.31
2019-03-03T06:34:15.573Z,97644.47
2019-03-03T06:36:47.508Z,97643.84
2019-03-03T06:39:19.433Z,97644.36
2019-03-03T06:41:51.362Z,97642.33
2019-03-03T06:44:23.291Z,97634.83
2019-03-03T06:46:55.219Z,97635.78
2019-03-03T06:49:27.160Z,97634.16
2019-03-03T06:51:59.099Z,97634.67
2019-03-03T06:54:31.028Z,97638.70
2019-03-03T06:57:02.985Z,97634.25
2019-03-03T06:59:34.891Z,97630.38
2019-03-03T07:02:07.031Z,97624.18
2019-03-03T07:04:38.969Z,97624.87
2019-03-03T07:07:10.922Z,97621.79
2019-03-03T07:09:42.854Z,97622.83
2019-03-03T07:12:14.902Z,97622.91
2019-03-03T07:14:46.945Z,97622.58
2019-03-03T07:17:18.997Z,97618.89
2019-03-03T07:19:51.057Z,97619.43
2019-03-03T07:22:23.106Z,97617.56
2019-03-03T07:24:55.152Z,97615.37
2019-03-03T07:27:27.126Z,97611.14
2019-03-03T07:29:59.052Z,97606.77
2019-03-03T07:32:31.264Z,97606.90
2019-03-03T07:35:03.191Z,97606.55
2019-03-03T07:37:35.117Z,97599.65
2019-03-03T07:40:07.344Z,97605.05
2019-03-03T07:42:39.274Z,97602.62
2019-03-03T07:45:12.239Z,97607.20
2019-03-03T07:47:44.285Z,97601.88
2019-03-03T07:50:16.179Z,97605.94
2019-03-03T07:52:48.214Z,97605.94
2019-03-03T07:55:20.113Z,97600.48
2019-03-03T07:57:52.055Z,97600.64
2019-03-03T08:00:24.093Z,97604.84
2019-03-03T08:02:56.062Z,97603.23
2019-03-03T08:05:27.993Z,97608.45
2019-03-03T08:07:59.940Z,97598.91
2019-03-03T08:10:31.880Z,97606.58
2019-03-03T08:13:09.268Z,97607.45
2019-03-03T08:15:37.452Z,97606.10
2019-03-03T08:18:09.401Z,97603.28
2019-03-03T08:20:41.357Z,97612.48
2019-03-03T08:23:13.289Z,97607.37
2019-03-03T08:25:45.268Z,97609.63
2019-03-03T08:28:17.203Z,97615.25
2019-03-03T08:30:49.129Z,97612.96
2019-03-03T08:33:21.070Z,97614.29
2019-03-03T08:35:53.000Z,97615.05
2019-03-03T08:38:26.400Z,97612.16
2019-03-03T08:40:58.363Z,97613.11
2019-03-03T08:43:47.318Z,97608.85
2019-03-03T08:46:38.082Z,97618.97
2019-03-03T08:49:29.813Z,97618.05
2019-03-03T08:52:23.733Z,97627.08
2019-03-03T08:55:10.899Z,97630.30
2019-03-03T08:57:50.897Z,97635.52
2019-03-03T09:00:38.139Z,97635.60
2019-03-03T09:03:17.160Z,97647.13
2019-03-03T09:06:05.071Z,97650.58
2019-03-03T09:08:58.599Z,97640.01
2019-03-03T09:11:45.131Z,97636.84
2019-03-03T09:14:24.155Z,97634.46
2019-03-03T09:17:20.694Z,97630.68
2019-03-03T09:20:17.422Z,97632.73
2019-03-03T09:23:06.851Z,97632.41
2019-03-03T09:26:00.500Z,97633.77
2019-03-03T09:28:51.342Z,97634.59
2019-03-03T09:31:44.995Z,97641.03
2019-03-03T09:34:41.894Z,97639.46
2019-03-03T09:37:35.393Z,97634.96
2019-03-03T09:40:36.652Z,97638.17
2019-03-03T09:43:33.592Z,97644.53
2019-03-03T09:46:21.626Z,97636.53
2019-03-03T09:49:17.194Z,97640.88
2019-03-03T09:52:13.274Z,97644.97
2019-03-03T09:54:56.318Z,97640.43
2019-03-03T09:57:42.459Z,97636.75
2019-03-03T10:00:39.859Z,97634.72
2019-03-03T10:03:29.200Z,97632.42
2019-03-03T10:06:26.073Z,97628.17
2019-03-03T10:09:09.658Z,97630.54
2019-03-03T10:12:01.263Z,97620.63
2019-03-03T10:14:41.282Z,97624.25
2019-03-03T10:17:32.759Z,97624.17
2019-03-03T10:20:24.254Z,97624.04
2019-03-03T10:23:07.400Z,97614.03
2019-03-03T10:26:10.115Z,97610.41
2019-03-03T10:29:03.886Z,97603.28
2019-03-03T10:31:48.016Z,97609.11
2019-03-03T10:34:38.972Z,97603.73
2019-03-03T10:37:48.302Z,97599.54
2019-03-03T10:40:45.020Z,97605.21
2019-03-03T10:43:41.949Z,97600.19
2019-03-03T10:46:21.283Z,97590.42
2019-03-03T10:49:24.009Z,97582.59
2019-03-03T10:52:13.468Z,97567.77
2019-03-03T10:54:57.874Z,97575.44
2019-03-03T10:57:44.956Z,97571.97
2019-03-03T11:00:51.782Z,97563.56
2019-03-03T11:03:40.873Z,97553.87
2019-03-03T11:06:30.164Z,97548.45
2019-03-03T11:09:21.074Z,97550.78
2019-03-03T11:12:18.845Z,97554.65
2019-03-03T11:15:18.255Z,97561.34
2019-03-03T11:18:00.778Z,97557.77
2019-03-03T11:21:06.492Z,97556.64
2019-03-03T11:24:00.390Z,97553.45
2019-03-03T11:26:58.062Z,97561.61
2019-03-03T11:29:48.294Z,97554.59
2019-03-03T11:32:36.553Z,97556.02
2019-03-03T11:35:27.653Z,97562.02
2019-03-03T11:38:21.747Z,97552.59
2019-03-03T11:41:21.625Z,97554.55
2019-03-03T11:44:06.644Z,97540.70
2019-03-03T11:47:03.037Z,97539.23
2019-03-03T11:49:45.195Z,97530.98
2019-03-03T11:52:25.799Z,97537.73
2019-03-03T11:55:08.737Z,97531.98
2019-03-03T11:57:47.173Z,97527.20
2019-03-03T12:00:33.375Z,97539.93
2019-03-03T12:03:24.248Z,97531.87
2019-03-03T12:06:20.467Z,97523.48
2019-03-03T12:09:11.967Z,97525.95
2019-03-03T12:12:01.246Z,97526.42
2019-03-03T12:14:54.880Z,97523.30
2019-03-03T12:17:48.908Z,97515.70
2019-03-03T12:20:46.022Z,97521.05
2019-03-03T12:23:35.324Z,97512.89
2019-03-03T12:26:29.282Z,97505.04
2019-03-03T12:29:29.134Z,97495.38
2019-03-03T12:32:23.322Z,97492.73
2019-03-03T12:35:03.715Z,97492.31
2019-03-03T12:37:54.557Z,97494.91
2019-03-03T12:40:39.891Z,97484.09
2019-03-03T12:43:36.705Z,97477.94
2019-03-03T12:46:24.007Z,97479.09
2019-03-03T12:49:24.017Z,97477.70
2019-03-03T12:52:05.161Z,97472.52
2019-03-03T12:55:01.812Z,97470.05
2019-03-03T12:58:04.504Z,97464.77
2019-03-03T13:00:47.668Z,97467.98
2019-03-03T13:03:37.081Z,97459.03
2019-03-03T13:06:24.092Z,97461.13
2019-03-03T13:09:08.563Z,97448.84
2019-03-03T13:11:56.576Z,97452.52
2019-03-03T13:14:56.469Z,97440.95
2019-03-03T13:17:47.771Z,97449.95
2019-03-03T13:20:34.589Z,97444.27
2019-03-03T13:23:24.263Z,97435.96
2019-03-03T13:26:21.328Z,97430.55
2019-03-03T13:29:06.015Z,97423.86
2019-03-03T13:31:56.864Z,97423.08
2019-03-03T13:34:51.524Z,97423.70
2019-03-03T13:37:51.732Z,97417.85
2019-03-03T13:40:38.665Z,97415.84
2019-03-03T13:43:10.854Z,97416.01
2019-03-03T13:45:42.941Z,97409.46
2019-03-03T13:48:15.038Z,97409.92
2019-03-03T13:50:47.166Z,97406.03
2019-03-03T13:53:19.359Z,97399.08
2019-03-03T13:55:51.479Z,97394.75
2019-03-03T13:58:23.494Z,97394.75
2019-03-03T14:00:55.983Z,97393.36
2019-03-03T14:03:28.092Z,97388.98
2019-03-03T14:06:00.111Z,97380.78
2019-03-03T14:08:32.215Z,97386.75
2019-03-03T14:11:04.321Z,97382.16
2019-03-03T14:13:36.415Z,97387.97
2019-03-03T14:16:08.639Z,97382.30
2019-03-03T14:18:40.835Z,97376.52
2019-03-03T14:21:13.041Z,97379.45
2019-03-03T14:23:45.256Z,97384.08
2019-03-03T14:26:17.494Z,97372.47
2019-03-03T14:28:49.661Z,97370.22
2019-03-03T14:31:21.724Z,97369.28
2019-03-03T14:33:53.740Z,97364.16
2019-03-03T14:36:25.767Z,97361.11
2019-03-03T14:38:57.844Z,97353.70
2019-03-03T14:41:29.873Z,97360.33
2019-03-03T14:44:01.974Z,97357.59
2019-03-03T14:46:34.070Z,97352.41
2019-03-03T14:49:06.528Z,97356.73
2019-03-03T14:51:38.727Z,97344.24
2019-03-03T14:54:10.913Z,97347.00
2019-03-03T14:56:43.020Z,97346.50
2019-03-03T14:59:15.229Z,97347.95
2019-03-03T15:01:47.330Z,97348.89
2019-03-03T15:04:19.431Z,97337.61
2019-03-03T15:06:51.729Z,97349.55
2019-03-03T15:09:24.732Z,97337.18
2019-03-03T15:11:56.923Z,97335.57
2019-03-03T15:14:28.935Z,97336.20
2019-03-03T15:17:01.031Z,97332.55
2019-03-03T15:19:33.120Z,97335.45
2019-03-03T15:22:05.237Z,97325.73
2019-03-03T15:24:37.249Z,97328.94
2019-03-03T15:27:09.285Z,97317.11
2019-03-03T15:29:41.509Z,97323.53
2019-03-03T15:32:13.740Z,97318.86
2019-03-03T15:34:45.836Z,97316.42
2019-03-03T15:37:17.853Z,97309.66
2019-03-03T15:39:50.000Z,97306.13
2019-03-03T15:42:22.109Z,97308.23
2019-03-03T15:44:54.195Z,97301.94
2019-03-03T15:47:26.231Z,97300.84
2019-03-03T15:49:59.618Z,97303.58
2019-03-03T15:52:31.711Z,97305.69
2019-03-03T15:55:03.906Z,97306.02
2019-03-03T15:57:36.009Z,97300.84
2019-03-03T16:00:21.820Z,97300.98
2019-03-03T16:02:54.170Z,97296.80
2019-03-03T16:05:26.480Z,97295.37
2019-03-03T16:07:58.503Z,97295.81
2019-03-03T16:10:30.727Z,97291.57
2019-03-03T16:13:03.837Z,97288.19
2019-03-03T16:15:36.036Z,97296.24
2019-03-03T16:18:08.234Z,97291.20
2019-03-03T16:20:40.261Z,97292.20
2019-03-03T16:23:12.445Z,97285.41
2019-03-03T16:25:44.638Z,97284.12
2019-03-03T16:28:16.721Z,97281.68
2019-03-03T16:30:48.768Z,97275.16
2019-03-03T16:33:21.115Z,97274.84
2019-03-03T16:35:53.274Z,97269.05
2019-03-03T16:38:25.376Z,97262.73
2019-03-03T16:40:57.466Z,97264.28
2019-03-03T16:43:29.862Z,97261.23
2019-03-03T16:46:01.949Z,97262.20
2019-03-03T16:48:34.037Z,97255.44
2019-03-03T16:51:06.054Z,97252.48
2019-03-03T16:53:38.105Z,97251.98
2019-03-03T16:56:10.296Z,97246.34
2019-03-03T16:58:42.321Z,97239.19
2019-03-03T17:01:14.416Z,97236.09
2019-03-03T17:03:46.500Z,97237.97
2019-03-03T17:06:18.517Z,97232.14
2019-03-03T17:08:50.542Z,97232.17
2019-03-03T17:11:22.551Z,97229.92
2019-03-03T17:13:54.573Z,97232.05
2019-03-03T17:16:26.587Z,97230.86
2019-03-03T17:18:58.621Z,97232.41
2019-03-03T17:21:30.715Z,97236.09
2019-03-03T17:24:02.773Z,97227.34
2019-03-03T17:26:34.882Z,97230.03
2019-03-03T17:29:07.005Z,97225.81
2019-03-03T17:31:39.100Z,97226.81
2019-03-03T17:34:13.212Z,97227.64
2019-03-03T17:36:44.917Z,97226.33
2019-03-03T17:39:16.961Z,97224.23
2019-03-03T17:41:51.047Z,97220.41
2019-03-03T17:44:23.186Z,97218.34
2019-03-03T17:46:55.271Z,97214.81
2019-03-03T17:49:27.796Z,97216.42
2019-03-03T17:51:59.887Z,97215.78
2019-03-03T17:54:32.357Z,97208.89
2019-03-03T17:57:04.418Z,97204.17
2019-03-03T17:59:36.517Z,97205.89
2019-03-03T18:02:08.528Z,97205.48
2019-03-03T18:04:40.622Z,97200.23
2019-03-03T18:07:12.754Z,97198.69
2019-03-03T18:09:44.847Z,97191.02
2019-03-03T18:12:16.865Z,97184.11
2019-03-03T18:14:48.971Z,97181.48
2019-03-03T18:17:20.985Z,97177.04
2019-03-03T18:19:53.083Z,97179.75
2019-03-03T18:22:25.105Z,97170.21
2019-03-03T18:24:57.320Z,97172.09
2019-03-03T18:27:29.519Z,97176.70
2019-03-03T18:30:01.582Z,97175.41
2019-03-03T18:32:33.674Z,97165.72
2019-03-03T18:35:06.367Z,97168.56
2019-03-03T18:37:38.567Z,97156.92
2019-03-03T18:40:12.230Z,97157.39
2019-03-03T18:42:44.260Z,97156.61
2019-03-03T18:45:17.007Z,97155.58
2019-03-03T18:47:49.433Z,97156.34
2019-03-03T18:50:21.835Z,97160.64
2019-03-03T18:52:53.871Z,97168.84
2019-03-03T18:55:25.970Z,97164.28
2019-03-03T18:57:58.065Z,97166.37
2019-03-03T19:00:30.203Z,97167.17
2019-03-03T19:03:02.374Z,97168.33
2019-03-03T19:05:34.471Z,97167.31
2019-03-03T19:08:06.518Z,97155.02
2019-03-03T19:10:38.665Z,97155.63
2019-03-03T19:13:11.163Z,97161.31
2019-03-03T19:15:44.387Z,97154.66
2019-03-03T19:18:16.490Z,97144.89
2019-03-03T19:20:48.673Z,97137.17
2019-03-03T19:23:20.552Z,97131.81
2019-03-03T19:25:52.555Z,97137.79
2019-03-03T19:28:24.474Z,97140.47
2019-03-03T19:30:56.453Z,97137.38
2019-03-03T19:33:41.057Z,97129.83
2019-03-03T19:36:12.999Z,97128.36
2019-03-03T19:38:45.037Z,97123.08
2019-03-03T19:41:16.986Z,97117.48
2019-03-03T19:43:48.988Z,97119.80
2019-03-03T19:46:21.438Z,97119.79
2019-03-03T19:48:53.341Z,97113.25
2019-03-03T19:51:25.378Z,97110.25
2019-03-03T19:53:57.273Z,97106.88
2019-03-03T19:56:29.215Z,97106.23
2019-03-03T19:59:01.206Z,97110.47
2019-03-03T20:01:33.256Z,97111.22
2019-03-03T20:04:05.376Z,97102.84
2019-03-03T20:06:37.269Z,97100.75
2019-03-03T20:09:10.224Z,97099.28
2019-03-03T20:11:42.253Z,97099.78
2019-03-03T20:14:14.322Z,97093.20
2019-03-03T20:16:46.443Z,97091.00
2019-03-03T20:19:18.540Z,97083.95
2019-03-03T20:21:50.662Z,97080.90
2019-03-03T20:24:22.736Z,97078.17
2019-03-03T20:26:54.884Z,97071.98
2019-03-03T20:29:26.897Z,97069.61
2019-03-03T20:31:59.279Z,97071.75
2019-03-03T20:34:31.221Z,97073.20
2019-03-03T20:37:03.232Z,97064.71
2019-03-03T20:39:35.167Z,97054.67
2019-03-03T20:42:07.115Z,97051.52
2019-03-03T20:44:39.066Z,97051.14
2019-03-03T20:47:11.054Z,97045.14
2019-03-03T20:49:42.989Z,97041.28
2019-03-03T20:52:14.934Z,97047.18
2019-03-03T20:54:48.334Z,97039.95
2019-03-03T20:57:20.273Z,97036.13
2019-03-03T20:59:52.503Z,97032.59
2019-03-03T21:02:24.480Z,97026.33
2019-03-03T21:04:56.425Z,97021.98
2019-03-03T21:07:28.373Z,97024.53
2019-03-03T21:10:00.378Z,97028.01
2019-03-03T21:12:32.387Z,97034.28
2019-03-03T21:15:04.755Z,97036.02
2019-03-03T21:17:38.153Z,97033.73
2019-03-03T21:20:12.529Z,97031.14
2019-03-03T21:22:44.500Z,97025.22
2019-03-03T21:25:16.648Z,97019.17
2019-03-03T21:27:48.728Z,97015.42
2019-03-03T21:30:22.872Z,97011.25
2019-03-03T21:32:55.417Z,97011.07
2019-03-03T21:35:27.439Z,97003.23
2019-03-03T21:37:59.476Z,97003.52
2019-03-03T21:40:31.555Z,96998.33
2019-03-03T21:43:03.515Z,96984.20
2019-03-03T21:45:35.446Z,96971.71
2019-03-03T21:48:07.594Z,96965.64
2019-03-03T21:50:39.508Z,96964.86
2019-03-03T21:53:11.449Z,96967.64
2019-03-03T21:55:43.377Z,96955.17
2019-03-03T21:58:15.415Z,96956.94
2019-03-03T22:00:47.431Z,96949.74
2019-03-03T22:03:19.371Z,96947.78
2019-03-03T22:05:51.304Z,96946.80
2019-03-03T22:08:23.238Z,96945.59
2019-03-03T22:10:55.179Z,96936.87
2019-03-03T22:13:27.121Z,96919.48
2019-03-03T22:15:59.050Z,96923.63
2019-03-03T22:18:30.983Z,96920.43
2019-03-03T22:21:02.918Z,96920.24
2019-03-03T22:23:34.929Z,96922.17
2019-03-03T22:26:06.964Z,96919.30
2019-03-03T22:28:38.897Z,96915.96
2019-03-03T22:31:10.829Z,96919.33
2019-03-03T22:33:42.756Z,96913.37
2019-03-03T22:36:14.678Z,96907.28
2019-03-03T22:38:46.617Z,96908.12
2019-03-03T22:41:18.857Z,96906.95
2019-03-03T22:43:50.804Z,96906.38
2019-03-03T22:46:22.773Z,96906.34
2019-03-03T22:48:54.716Z,96900.69
2019-03-03T22:51:26.643Z,96899.86
2019-03-03T22:53:58.580Z,96892.67
2019-03-03T22:56:30.501Z,96886.55
2019-03-03T22:59:02.434Z,96883.31
2019-03-03T23:01:40.795Z,96883.95
2019-03-03T23:05:22.722Z,96890.66
2019-03-03T23:08:13.337Z,96889.23
2019-03-03T23:11:24.120Z,96894.86
2019-03-03T23:14:54.807Z,96896.12
2019-03-03T23:18:09.742Z,96899.47
2019-03-03T23:21:32.213Z,96897.99
2019-03-03T23:24:47.292Z,96871.69
2019-03-03T23:27:19.186Z,96849.83
2019-03-03T23:29:51.125Z,96856.33
2019-03-03T23:32:23.020Z,96857.66
2019-03-03T23:34:55.763Z,96855.86
2019-03-03T23:37:27.652Z,96855.62
2019-03-03T23:39:59.591Z,96854.92
2019-03-03T23:42:31.586Z,96853.00
2019-03-03T23:45:03.519Z,96853.48
2019-03-03T23:47:35.412Z,96857.28
2019-03-03T23:50:07.671Z,96857.47
2019-03-03T23:52:39.580Z,96846.29
2019-03-03T23:55:14.075Z,96851.75
2019-03-03T23:57:45.990Z,96847.52
